sensor_id;sensor_type;location;lat;lon;timestamp;P1;durP1;ratioP1;P2;durP2;ratioP2
36715;SDS011;22699;51.034;3.730;2023-04-25T00:00:56;20.90;;;5.05;;
36715;SDS011;22699;51.034;3.730;2023-04-25T00:03:22;22.23;;;5.47;;
36715;SDS011;22699;51.034;3.730;2023-04-25T00:05:50;17.70;;;4.70;;
36715;SDS011;22699;51.034;3.730;2023-04-25T00:08:17;19.52;;;5.10;;
36715;SDS011;22699;51.034;3.730;2023-04-25T00:10:42;18.45;;;4.65;;
36715;SDS011;22699;51.034;3.730;2023-04-25T00:13:08;17.00;;;4.60;;
36715;SDS011;22699;51.034;3.730;2023-04-25T00:15:36;14.95;;;5.28;;
36715;SDS011;22699;51.034;3.730;2023-04-25T00:18:05;14.90;;;5.55;;
36715;SDS011;22699;51.034;3.730;2023-04-25T00:20:31;19.30;;;5.50;;
36715;SDS011;22699;51.034;3.730;2023-04-25T00:22:57;20.48;;;5.70;;
36715;SDS011;22699;51.034;3.730;2023-04-25T00:25:22;15.85;;;5.10;;
36715;SDS011;22699;51.034;3.730;2023-04-25T00:27:48;20.08;;;5.22;;
36715;SDS011;22699;51.034;3.730;2023-04-25T00:30:14;16.45;;;5.43;;
36715;SDS011;22699;51.034;3.730;2023-04-25T00:32:40;13.80;;;4.65;;
36715;SDS011;22699;51.034;3.730;2023-04-25T00:35:05;17.52;;;5.57;;
36715;SDS011;22699;51.034;3.730;2023-04-25T00:37:31;21.80;;;5.78;;
36715;SDS011;22699;51.034;3.730;2023-04-25T00:40:00;19.33;;;4.70;;
36715;SDS011;22699;51.034;3.730;2023-04-25T00:42:26;12.10;;;4.20;;
36715;SDS011;22699;51.034;3.730;2023-04-25T00:44:53;16.17;;;5.10;;
36715;SDS011;22699;51.034;3.730;2023-04-25T00:47:19;15.77;;;3.80;;
36715;SDS011;22699;51.034;3.730;2023-04-25T00:49:45;20.48;;;4.70;;
36715;SDS011;22699;51.034;3.730;2023-04-25T00:52:11;15.80;;;3.88;;
36715;SDS011;22699;51.034;3.730;2023-04-25T00:54:38;21.60;;;5.35;;
36715;SDS011;22699;51.034;3.730;2023-04-25T00:57:03;19.98;;;4.25;;
36715;SDS011;22699;51.034;3.730;2023-04-25T00:59:29;17.15;;;4.55;;
36715;SDS011;22699;51.034;3.730;2023-04-25T01:01:56;12.32;;;3.90;;
36715;SDS011;22699;51.034;3.730;2023-04-25T01:04:22;13.85;;;4.60;;
36715;SDS011;22699;51.034;3.730;2023-04-25T01:06:47;14.43;;;3.95;;
36715;SDS011;22699;51.034;3.730;2023-04-25T01:09:14;15.20;;;4.40;;
36715;SDS011;22699;51.034;3.730;2023-04-25T01:11:40;14.93;;;5.10;;
36715;SDS011;22699;51.034;3.730;2023-04-25T01:14:05;14.15;;;3.88;;
36715;SDS011;22699;51.034;3.730;2023-04-25T01:16:31;17.30;;;4.85;;
36715;SDS011;22699;51.034;3.730;2023-04-25T01:18:58;20.50;;;4.80;;
36715;SDS011;22699;51.034;3.730;2023-04-25T01:21:24;15.73;;;4.85;;
36715;SDS011;22699;51.034;3.730;2023-04-25T01:23:52;15.30;;;4.05;;
36715;SDS011;22699;51.034;3.730;2023-04-25T01:26:19;19.48;;;4.63;;
36715;SDS011;22699;51.034;3.730;2023-04-25T01:28:46;16.65;;;3.90;;
36715;SDS011;22699;51.034;3.730;2023-04-25T01:31:14;18.42;;;4.30;;
36715;SDS011;22699;51.034;3.730;2023-04-25T01:33:41;16.80;;;4.57;;
36715;SDS011;22699;51.034;3.730;2023-04-25T01:36:07;11.63;;;3.88;;
36715;SDS011;22699;51.034;3.730;2023-04-25T01:38:35;17.95;;;4.65;;
36715;SDS011;22699;51.034;3.730;2023-04-25T01:41:00;16.00;;;3.88;;
36715;SDS011;22699;51.034;3.730;2023-04-25T01:43:26;12.55;;;4.07;;
36715;SDS011;22699;51.034;3.730;2023-04-25T01:45:52;15.93;;;3.95;;
36715;SDS011;22699;51.034;3.730;2023-04-25T01:48:18;12.80;;;4.85;;
36715;SDS011;22699;51.034;3.730;2023-04-25T01:50:44;13.70;;;4.53;;
36715;SDS011;22699;51.034;3.730;2023-04-25T01:53:10;15.68;;;4.38;;
36715;SDS011;22699;51.034;3.730;2023-04-25T01:55:38;26.88;;;5.22;;
36715;SDS011;22699;51.034;3.730;2023-04-25T01:58:04;22.70;;;5.07;;
36715;SDS011;22699;51.034;3.730;2023-04-25T02:00:35;12.80;;;4.03;;
36715;SDS011;22699;51.034;3.730;2023-04-25T02:03:06;16.83;;;5.00;;
36715;SDS011;22699;51.034;3.730;2023-04-25T02:05:38;16.85;;;4.55;;
36715;SDS011;22699;51.034;3.730;2023-04-25T02:08:05;17.95;;;4.75;;
36715;SDS011;22699;51.034;3.730;2023-04-25T02:10:35;17.50;;;4.82;;
36715;SDS011;22699;51.034;3.730;2023-04-25T02:13:01;14.77;;;3.85;;
36715;SDS011;22699;51.034;3.730;2023-04-25T02:15:29;17.55;;;4.80;;
36715;SDS011;22699;51.034;3.730;2023-04-25T02:17:55;17.63;;;4.63;;
36715;SDS011;22699;51.034;3.730;2023-04-25T02:20:21;22.17;;;5.68;;
36715;SDS011;22699;51.034;3.730;2023-04-25T02:22:48;13.38;;;4.13;;
36715;SDS011;22699;51.034;3.730;2023-04-25T02:25:14;22.58;;;5.43;;
36715;SDS011;22699;51.034;3.730;2023-04-25T02:27:41;16.88;;;4.95;;
36715;SDS011;22699;51.034;3.730;2023-04-25T02:30:07;16.90;;;4.78;;
36715;SDS011;22699;51.034;3.730;2023-04-25T02:32:33;18.30;;;5.82;;
36715;SDS011;22699;51.034;3.730;2023-04-25T02:35:00;12.45;;;3.72;;
36715;SDS011;22699;51.034;3.730;2023-04-25T02:37:35;24.17;;;4.30;;
36715;SDS011;22699;51.034;3.730;2023-04-25T02:40:03;14.13;;;3.90;;
36715;SDS011;22699;51.034;3.730;2023-04-25T02:42:29;17.02;;;4.55;;
36715;SDS011;22699;51.034;3.730;2023-04-25T02:44:55;12.35;;;4.00;;
36715;SDS011;22699;51.034;3.730;2023-04-25T02:47:22;15.93;;;4.53;;
36715;SDS011;22699;51.034;3.730;2023-04-25T02:49:47;18.45;;;5.28;;
36715;SDS011;22699;51.034;3.730;2023-04-25T02:52:13;18.08;;;4.30;;
36715;SDS011;22699;51.034;3.730;2023-04-25T02:54:39;17.13;;;4.50;;
36715;SDS011;22699;51.034;3.730;2023-04-25T02:57:05;10.27;;;3.67;;
36715;SDS011;22699;51.034;3.730;2023-04-25T02:59:32;13.25;;;4.05;;
36715;SDS011;22699;51.034;3.730;2023-04-25T03:01:57;15.98;;;4.50;;
36715;SDS011;22699;51.034;3.730;2023-04-25T03:04:23;13.77;;;4.28;;
36715;SDS011;22699;51.034;3.730;2023-04-25T03:06:52;17.65;;;4.07;;
36715;SDS011;22699;51.034;3.730;2023-04-25T03:09:18;20.17;;;4.57;;
36715;SDS011;22699;51.034;3.730;2023-04-25T03:11:44;16.35;;;4.15;;
36715;SDS011;22699;51.034;3.730;2023-04-25T03:14:10;11.98;;;4.10;;
36715;SDS011;22699;51.034;3.730;2023-04-25T03:16:36;14.32;;;4.05;;
36715;SDS011;22699;51.034;3.730;2023-04-25T03:19:02;17.08;;;4.20;;
36715;SDS011;22699;51.034;3.730;2023-04-25T03:21:28;10.73;;;4.43;;
36715;SDS011;22699;51.034;3.730;2023-04-25T03:23:57;8.40;;;3.25;;
36715;SDS011;22699;51.034;3.730;2023-04-25T03:26:24;13.77;;;3.67;;
36715;SDS011;22699;51.034;3.730;2023-04-25T03:28:50;12.30;;;3.80;;
36715;SDS011;22699;51.034;3.730;2023-04-25T03:31:15;11.27;;;3.30;;
36715;SDS011;22699;51.034;3.730;2023-04-25T03:33:42;15.30;;;4.00;;
36715;SDS011;22699;51.034;3.730;2023-04-25T03:36:08;13.60;;;3.60;;
36715;SDS011;22699;51.034;3.730;2023-04-25T03:38:34;12.93;;;3.65;;
36715;SDS011;22699;51.034;3.730;2023-04-25T03:41:00;16.85;;;4.15;;
36715;SDS011;22699;51.034;3.730;2023-04-25T03:43:27;11.63;;;2.80;;
36715;SDS011;22699;51.034;3.730;2023-04-25T03:45:53;10.68;;;3.33;;
36715;SDS011;22699;51.034;3.730;2023-04-25T03:48:19;10.50;;;3.72;;
36715;SDS011;22699;51.034;3.730;2023-04-25T03:50:50;10.05;;;3.17;;
36715;SDS011;22699;51.034;3.730;2023-04-25T03:53:16;13.48;;;3.33;;
36715;SDS011;22699;51.034;3.730;2023-04-25T03:55:42;11.63;;;3.40;;
36715;SDS011;22699;51.034;3.730;2023-04-25T03:58:07;8.38;;;3.50;;
36715;SDS011;22699;51.034;3.730;2023-04-25T04:00:34;12.98;;;3.80;;
36715;SDS011;22699;51.034;3.730;2023-04-25T04:03:00;12.68;;;3.97;;
36715;SDS011;22699;51.034;3.730;2023-04-25T04:05:26;10.88;;;3.42;;
36715;SDS011;22699;51.034;3.730;2023-04-25T04:07:52;12.70;;;3.17;;
36715;SDS011;22699;51.034;3.730;2023-04-25T04:10:18;8.48;;;3.38;;
36715;SDS011;22699;51.034;3.730;2023-04-25T04:12:44;10.70;;;3.58;;
36715;SDS011;22699;51.034;3.730;2023-04-25T04:15:11;9.27;;;3.63;;
36715;SDS011;22699;51.034;3.730;2023-04-25T04:17:37;12.48;;;3.97;;
36715;SDS011;22699;51.034;3.730;2023-04-25T04:20:03;16.98;;;4.15;;
36715;SDS011;22699;51.034;3.730;2023-04-25T04:22:29;13.02;;;4.10;;
36715;SDS011;22699;51.034;3.730;2023-04-25T04:24:55;13.48;;;4.15;;
36715;SDS011;22699;51.034;3.730;2023-04-25T04:27:26;13.20;;;3.95;;
36715;SDS011;22699;51.034;3.730;2023-04-25T04:29:53;14.10;;;3.78;;
36715;SDS011;22699;51.034;3.730;2023-04-25T04:32:18;11.32;;;3.78;;
36715;SDS011;22699;51.034;3.730;2023-04-25T04:34:44;14.05;;;4.60;;
36715;SDS011;22699;51.034;3.730;2023-04-25T04:37:10;11.07;;;4.63;;
36715;SDS011;22699;51.034;3.730;2023-04-25T04:39:38;10.27;;;3.95;;
36715;SDS011;22699;51.034;3.730;2023-04-25T04:42:04;11.70;;;4.20;;
36715;SDS011;22699;51.034;3.730;2023-04-25T04:44:30;17.55;;;5.20;;
36715;SDS011;22699;51.034;3.730;2023-04-25T04:47:00;12.27;;;4.15;;
36715;SDS011;22699;51.034;3.730;2023-04-25T04:49:26;11.77;;;3.80;;
36715;SDS011;22699;51.034;3.730;2023-04-25T04:51:52;13.07;;;3.30;;
36715;SDS011;22699;51.034;3.730;2023-04-25T04:54:19;13.98;;;3.92;;
36715;SDS011;22699;51.034;3.730;2023-04-25T04:56:45;18.58;;;3.75;;
36715;SDS011;22699;51.034;3.730;2023-04-25T04:59:11;13.38;;;4.65;;
36715;SDS011;22699;51.034;3.730;2023-04-25T05:01:43;11.27;;;3.30;;
36715;SDS011;22699;51.034;3.730;2023-04-25T05:04:08;12.05;;;3.70;;
36715;SDS011;22699;51.034;3.730;2023-04-25T05:06:34;13.45;;;4.10;;
36715;SDS011;22699;51.034;3.730;2023-04-25T05:09:00;11.43;;;3.67;;
36715;SDS011;22699;51.034;3.730;2023-04-25T05:11:26;16.25;;;3.47;;
36715;SDS011;22699;51.034;3.730;2023-04-25T05:13:52;14.43;;;4.68;;
36715;SDS011;22699;51.034;3.730;2023-04-25T05:16:17;11.05;;;3.70;;
36715;SDS011;22699;51.034;3.730;2023-04-25T05:18:45;13.52;;;3.38;;
36715;SDS011;22699;51.034;3.730;2023-04-25T05:21:11;17.10;;;4.28;;
36715;SDS011;22699;51.034;3.730;2023-04-25T05:23:37;14.30;;;3.80;;
36715;SDS011;22699;51.034;3.730;2023-04-25T05:26:04;18.73;;;4.40;;
36715;SDS011;22699;51.034;3.730;2023-04-25T05:28:30;17.30;;;4.43;;
36715;SDS011;22699;51.034;3.730;2023-04-25T05:30:57;16.77;;;4.22;;
36715;SDS011;22699;51.034;3.730;2023-04-25T05:33:23;12.43;;;3.85;;
36715;SDS011;22699;51.034;3.730;2023-04-25T05:35:48;15.38;;;3.55;;
36715;SDS011;22699;51.034;3.730;2023-04-25T05:38:15;12.63;;;3.55;;
36715;SDS011;22699;51.034;3.730;2023-04-25T05:40:42;14.27;;;3.38;;
36715;SDS011;22699;51.034;3.730;2023-04-25T05:43:08;16.45;;;3.95;;
36715;SDS011;22699;51.034;3.730;2023-04-25T05:45:35;14.50;;;4.07;;
36715;SDS011;22699;51.034;3.730;2023-04-25T05:48:00;11.18;;;3.78;;
36715;SDS011;22699;51.034;3.730;2023-04-25T05:50:26;10.27;;;3.15;;
36715;SDS011;22699;51.034;3.730;2023-04-25T05:52:53;11.70;;;3.00;;
36715;SDS011;22699;51.034;3.730;2023-04-25T05:55:23;14.25;;;3.13;;
36715;SDS011;22699;51.034;3.730;2023-04-25T05:57:49;10.30;;;3.10;;
36715;SDS011;22699;51.034;3.730;2023-04-25T06:00:15;14.15;;;3.47;;
36715;SDS011;22699;51.034;3.730;2023-04-25T06:02:41;13.40;;;3.47;;
36715;SDS011;22699;51.034;3.730;2023-04-25T06:05:07;12.95;;;3.75;;
36715;SDS011;22699;51.034;3.730;2023-04-25T06:07:33;9.68;;;2.88;;
36715;SDS011;22699;51.034;3.730;2023-04-25T06:10:00;16.05;;;3.42;;
36715;SDS011;22699;51.034;3.730;2023-04-25T06:12:26;13.07;;;2.92;;
36715;SDS011;22699;51.034;3.730;2023-04-25T06:17:28;8.90;;;2.45;;
36715;SDS011;22699;51.034;3.730;2023-04-25T06:19:56;12.05;;;2.75;;
36715;SDS011;22699;51.034;3.730;2023-04-25T06:22:28;10.30;;;2.58;;
36715;SDS011;22699;51.034;3.730;2023-04-25T06:24:54;9.63;;;3.15;;
36715;SDS011;22699;51.034;3.730;2023-04-25T06:27:22;11.77;;;2.67;;
36715;SDS011;22699;51.034;3.730;2023-04-25T06:29:49;10.90;;;2.97;;
36715;SDS011;22699;51.034;3.730;2023-04-25T06:34:43;12.82;;;3.00;;
36715;SDS011;22699;51.034;3.730;2023-04-25T06:37:09;8.95;;;2.35;;
36715;SDS011;22699;51.034;3.730;2023-04-25T06:39:35;11.13;;;2.65;;
36715;SDS011;22699;51.034;3.730;2023-04-25T06:42:02;12.10;;;2.03;;
36715;SDS011;22699;51.034;3.730;2023-04-25T06:44:28;19.23;;;2.50;;
36715;SDS011;22699;51.034;3.730;2023-04-25T06:46:55;12.30;;;1.95;;
36715;SDS011;22699;51.034;3.730;2023-04-25T06:49:22;9.23;;;2.50;;
36715;SDS011;22699;51.034;3.730;2023-04-25T06:51:47;4.30;;;1.50;;
36715;SDS011;22699;51.034;3.730;2023-04-25T06:54:15;6.03;;;1.42;;
36715;SDS011;22699;51.034;3.730;2023-04-25T06:56:40;9.82;;;1.77;;
36715;SDS011;22699;51.034;3.730;2023-04-25T06:59:10;7.00;;;1.80;;
36715;SDS011;22699;51.034;3.730;2023-04-25T07:01:36;8.63;;;1.63;;
36715;SDS011;22699;51.034;3.730;2023-04-25T07:04:05;13.23;;;2.20;;
36715;SDS011;22699;51.034;3.730;2023-04-25T07:06:31;13.43;;;2.65;;
36715;SDS011;22699;51.034;3.730;2023-04-25T07:08:57;7.25;;;2.15;;
36715;SDS011;22699;51.034;3.730;2023-04-25T07:11:24;9.68;;;2.10;;
36715;SDS011;22699;51.034;3.730;2023-04-25T07:13:51;8.85;;;1.88;;
36715;SDS011;22699;51.034;3.730;2023-04-25T07:18:47;6.88;;;2.13;;
36715;SDS011;22699;51.034;3.730;2023-04-25T07:21:14;9.52;;;2.08;;
36715;SDS011;22699;51.034;3.730;2023-04-25T07:23:39;7.57;;;2.13;;
36715;SDS011;22699;51.034;3.730;2023-04-25T07:26:06;9.10;;;2.05;;
36715;SDS011;22699;51.034;3.730;2023-04-25T07:28:34;13.10;;;2.28;;
36715;SDS011;22699;51.034;3.730;2023-04-25T07:31:09;5.55;;;1.63;;
36715;SDS011;22699;51.034;3.730;2023-04-25T07:33:35;4.70;;;1.55;;
36715;SDS011;22699;51.034;3.730;2023-04-25T07:36:01;9.20;;;2.83;;
36715;SDS011;22699;51.034;3.730;2023-04-25T07:38:27;4.68;;;1.50;;
36715;SDS011;22699;51.034;3.730;2023-04-25T07:40:53;6.70;;;1.40;;
36715;SDS011;22699;51.034;3.730;2023-04-25T07:43:18;8.73;;;1.90;;
36715;SDS011;22699;51.034;3.730;2023-04-25T07:45:47;8.13;;;1.27;;
36715;SDS011;22699;51.034;3.730;2023-04-25T07:48:17;4.95;;;1.63;;
36715;SDS011;22699;51.034;3.730;2023-04-25T07:50:46;4.88;;;1.27;;
36715;SDS011;22699;51.034;3.730;2023-04-25T07:53:13;5.32;;;1.27;;
36715;SDS011;22699;51.034;3.730;2023-04-25T07:55:39;6.22;;;1.90;;
36715;SDS011;22699;51.034;3.730;2023-04-25T07:58:07;5.18;;;1.27;;
36715;SDS011;22699;51.034;3.730;2023-04-25T08:00:35;7.60;;;1.85;;
36715;SDS011;22699;51.034;3.730;2023-04-25T08:03:11;7.10;;;1.50;;
36715;SDS011;22699;51.034;3.730;2023-04-25T08:05:37;8.57;;;1.50;;
36715;SDS011;22699;51.034;3.730;2023-04-25T08:08:07;4.88;;;1.60;;
36715;SDS011;22699;51.034;3.730;2023-04-25T08:10:35;5.22;;;1.70;;
36715;SDS011;22699;51.034;3.730;2023-04-25T08:13:02;6.00;;;1.38;;
36715;SDS011;22699;51.034;3.730;2023-04-25T08:15:28;3.70;;;1.10;;
36715;SDS011;22699;51.034;3.730;2023-04-25T08:17:54;4.65;;;1.05;;
36715;SDS011;22699;51.034;3.730;2023-04-25T08:20:21;7.32;;;1.75;;
36715;SDS011;22699;51.034;3.730;2023-04-25T08:22:50;4.45;;;1.33;;
36715;SDS011;22699;51.034;3.730;2023-04-25T08:25:16;8.80;;;1.50;;
36715;SDS011;22699;51.034;3.730;2023-04-25T08:30:12;8.43;;;1.77;;
36715;SDS011;22699;51.034;3.730;2023-04-25T08:32:39;4.22;;;1.08;;
36715;SDS011;22699;51.034;3.730;2023-04-25T08:35:09;6.75;;;0.90;;
36715;SDS011;22699;51.034;3.730;2023-04-25T08:37:34;3.30;;;0.90;;
36715;SDS011;22699;51.034;3.730;2023-04-25T08:40:01;5.72;;;1.05;;
36715;SDS011;22699;51.034;3.730;2023-04-25T08:42:28;4.72;;;1.30;;
36715;SDS011;22699;51.034;3.730;2023-04-25T08:44:56;2.28;;;0.60;;
36715;SDS011;22699;51.034;3.730;2023-04-25T08:47:24;3.60;;;1.10;;
36715;SDS011;22699;51.034;3.730;2023-04-25T08:49:53;4.20;;;0.70;;
36715;SDS011;22699;51.034;3.730;2023-04-25T08:52:21;6.80;;;1.27;;
36715;SDS011;22699;51.034;3.730;2023-04-25T08:55:09;7.57;;;1.42;;
36715;SDS011;22699;51.034;3.730;2023-04-25T08:57:36;4.70;;;1.23;;
36715;SDS011;22699;51.034;3.730;2023-04-25T09:00:05;3.75;;;1.60;;
36715;SDS011;22699;51.034;3.730;2023-04-25T09:02:32;3.33;;;1.05;;
36715;SDS011;22699;51.034;3.730;2023-04-25T09:04:58;3.03;;;1.00;;
36715;SDS011;22699;51.034;3.730;2023-04-25T09:07:24;3.75;;;1.00;;
36715;SDS011;22699;51.034;3.730;2023-04-25T09:09:50;4.07;;;1.33;;
36715;SDS011;22699;51.034;3.730;2023-04-25T09:12:19;4.78;;;1.00;;
36715;SDS011;22699;51.034;3.730;2023-04-25T09:17:31;6.10;;;1.63;;
36715;SDS011;22699;51.034;3.730;2023-04-25T09:20:08;7.28;;;1.33;;
36715;SDS011;22699;51.034;3.730;2023-04-25T09:22:36;5.85;;;1.73;;
36715;SDS011;22699;51.034;3.730;2023-04-25T09:25:03;6.68;;;1.25;;
36715;SDS011;22699;51.034;3.730;2023-04-25T09:30:18;4.60;;;1.50;;
36715;SDS011;22699;51.034;3.730;2023-04-25T09:32:43;5.72;;;1.25;;
36715;SDS011;22699;51.034;3.730;2023-04-25T09:35:10;2.88;;;0.93;;
36715;SDS011;22699;51.034;3.730;2023-04-25T09:37:48;4.80;;;1.80;;
36715;SDS011;22699;51.034;3.730;2023-04-25T09:40:14;5.57;;;1.30;;
36715;SDS011;22699;51.034;3.730;2023-04-25T09:42:41;7.13;;;1.55;;
36715;SDS011;22699;51.034;3.730;2023-04-25T09:45:06;4.80;;;1.20;;
36715;SDS011;22699;51.034;3.730;2023-04-25T09:47:33;4.13;;;1.70;;
36715;SDS011;22699;51.034;3.730;2023-04-25T09:50:04;3.15;;;1.10;;
36715;SDS011;22699;51.034;3.730;2023-04-25T09:52:40;4.45;;;1.08;;
36715;SDS011;22699;51.034;3.730;2023-04-25T09:55:06;3.47;;;0.90;;
36715;SDS011;22699;51.034;3.730;2023-04-25T09:57:34;3.85;;;0.95;;
36715;SDS011;22699;51.034;3.730;2023-04-25T10:00:04;2.17;;;1.13;;
36715;SDS011;22699;51.034;3.730;2023-04-25T10:02:35;4.28;;;1.50;;
36715;SDS011;22699;51.034;3.730;2023-04-25T10:05:05;2.55;;;1.05;;
36715;SDS011;22699;51.034;3.730;2023-04-25T10:07:32;5.30;;;1.00;;
36715;SDS011;22699;51.034;3.730;2023-04-25T10:10:01;26.67;;;13.48;;
36715;SDS011;22699;51.034;3.730;2023-04-25T10:12:29;8.82;;;3.42;;
36715;SDS011;22699;51.034;3.730;2023-04-25T10:14:58;11.13;;;2.40;;
36715;SDS011;22699;51.034;3.730;2023-04-25T10:20:06;3.38;;;1.23;;
36715;SDS011;22699;51.034;3.730;2023-04-25T10:22:45;7.88;;;2.08;;
36715;SDS011;22699;51.034;3.730;2023-04-25T10:25:13;3.97;;;1.20;;
36715;SDS011;22699;51.034;3.730;2023-04-25T10:27:42;9.00;;;3.58;;
36715;SDS011;22699;51.034;3.730;2023-04-25T10:30:09;12.52;;;3.60;;
36715;SDS011;22699;51.034;3.730;2023-04-25T10:32:41;4.65;;;2.05;;
36715;SDS011;22699;51.034;3.730;2023-04-25T10:35:11;13.60;;;3.85;;
36715;SDS011;22699;51.034;3.730;2023-04-25T10:37:37;7.57;;;1.70;;
36715;SDS011;22699;51.034;3.730;2023-04-25T10:40:10;4.22;;;1.73;;
36715;SDS011;22699;51.034;3.730;2023-04-25T10:42:38;4.18;;;1.63;;
36715;SDS011;22699;51.034;3.730;2023-04-25T10:45:07;5.10;;;1.40;;
36715;SDS011;22699;51.034;3.730;2023-04-25T10:47:36;4.38;;;1.70;;
36715;SDS011;22699;51.034;3.730;2023-04-25T10:50:14;4.35;;;1.40;;
36715;SDS011;22699;51.034;3.730;2023-04-25T10:52:42;7.70;;;1.75;;
36715;SDS011;22699;51.034;3.730;2023-04-25T10:55:09;6.93;;;1.85;;
36715;SDS011;22699;51.034;3.730;2023-04-25T10:57:44;3.03;;;1.40;;
36715;SDS011;22699;51.034;3.730;2023-04-25T11:00:15;4.53;;;1.20;;
36715;SDS011;22699;51.034;3.730;2023-04-25T11:02:53;5.57;;;1.10;;
36715;SDS011;22699;51.034;3.730;2023-04-25T11:05:31;5.40;;;1.17;;
36715;SDS011;22699;51.034;3.730;2023-04-25T11:07:59;2.45;;;1.05;;
36715;SDS011;22699;51.034;3.730;2023-04-25T11:10:28;7.72;;;1.85;;
36715;SDS011;22699;51.034;3.730;2023-04-25T11:12:56;7.07;;;1.63;;
36715;SDS011;22699;51.034;3.730;2023-04-25T11:15:22;5.93;;;1.30;;
36715;SDS011;22699;51.034;3.730;2023-04-25T11:17:53;5.82;;;1.10;;
36715;SDS011;22699;51.034;3.730;2023-04-25T11:20:21;4.50;;;1.27;;
36715;SDS011;22699;51.034;3.730;2023-04-25T11:22:47;4.32;;;0.80;;
36715;SDS011;22699;51.034;3.730;2023-04-25T11:25:14;3.13;;;0.90;;
36715;SDS011;22699;51.034;3.730;2023-04-25T11:27:50;5.88;;;1.23;;
36715;SDS011;22699;51.034;3.730;2023-04-25T11:30:22;5.63;;;1.00;;
36715;SDS011;22699;51.034;3.730;2023-04-25T11:32:50;4.05;;;1.38;;
36715;SDS011;22699;51.034;3.730;2023-04-25T11:35:17;4.93;;;1.45;;
36715;SDS011;22699;51.034;3.730;2023-04-25T11:37:44;2.97;;;0.68;;
36715;SDS011;22699;51.034;3.730;2023-04-25T11:40:10;4.60;;;1.10;;
36715;SDS011;22699;51.034;3.730;2023-04-25T11:42:43;3.83;;;1.17;;
36715;SDS011;22699;51.034;3.730;2023-04-25T11:45:10;4.00;;;1.00;;
36715;SDS011;22699;51.034;3.730;2023-04-25T11:47:37;3.40;;;0.93;;
36715;SDS011;22699;51.034;3.730;2023-04-25T11:50:05;6.45;;;1.70;;
36715;SDS011;22699;51.034;3.730;2023-04-25T11:52:46;3.90;;;1.08;;
36715;SDS011;22699;51.034;3.730;2023-04-25T11:55:14;2.38;;;0.85;;
36715;SDS011;22699;51.034;3.730;2023-04-25T11:57:41;5.68;;;1.33;;
36715;SDS011;22699;51.034;3.730;2023-04-25T12:00:18;4.63;;;1.52;;
36715;SDS011;22699;51.034;3.730;2023-04-25T12:02:46;3.30;;;0.88;;
36715;SDS011;22699;51.034;3.730;2023-04-25T12:05:15;2.85;;;1.25;;
36715;SDS011;22699;51.034;3.730;2023-04-25T12:07:41;5.50;;;0.93;;
36715;SDS011;22699;51.034;3.730;2023-04-25T12:10:09;4.03;;;1.13;;
36715;SDS011;22699;51.034;3.730;2023-04-25T12:12:37;5.50;;;1.58;;
36715;SDS011;22699;51.034;3.730;2023-04-25T12:17:36;7.97;;;1.33;;
36715;SDS011;22699;51.034;3.730;2023-04-25T12:20:10;7.55;;;1.33;;
36715;SDS011;22699;51.034;3.730;2023-04-25T12:22:38;5.72;;;2.80;;
36715;SDS011;22699;51.034;3.730;2023-04-25T12:25:11;5.85;;;1.17;;
36715;SDS011;22699;51.034;3.730;2023-04-25T12:27:37;3.75;;;1.30;;
36715;SDS011;22699;51.034;3.730;2023-04-25T12:30:07;4.78;;;1.20;;
36715;SDS011;22699;51.034;3.730;2023-04-25T12:32:35;7.30;;;1.83;;
36715;SDS011;22699;51.034;3.730;2023-04-25T12:35:02;5.30;;;1.08;;
36715;SDS011;22699;51.034;3.730;2023-04-25T12:37:29;7.90;;;1.75;;
36715;SDS011;22699;51.034;3.730;2023-04-25T12:39:55;5.05;;;1.50;;
36715;SDS011;22699;51.034;3.730;2023-04-25T12:42:22;6.50;;;1.60;;
36715;SDS011;22699;51.034;3.730;2023-04-25T12:44:48;2.30;;;0.88;;
36715;SDS011;22699;51.034;3.730;2023-04-25T12:47:17;4.75;;;1.02;;
36715;SDS011;22699;51.034;3.730;2023-04-25T12:49:47;6.55;;;1.20;;
36715;SDS011;22699;51.034;3.730;2023-04-25T12:52:15;6.05;;;1.10;;
36715;SDS011;22699;51.034;3.730;2023-04-25T12:54:41;3.83;;;1.17;;
36715;SDS011;22699;51.034;3.730;2023-04-25T12:57:07;3.78;;;1.05;;
36715;SDS011;22699;51.034;3.730;2023-04-25T12:59:33;5.53;;;1.45;;
36715;SDS011;22699;51.034;3.730;2023-04-25T13:01:59;9.20;;;1.75;;
36715;SDS011;22699;51.034;3.730;2023-04-25T13:04:26;6.43;;;1.00;;
36715;SDS011;22699;51.034;3.730;2023-04-25T13:06:52;5.15;;;1.38;;
36715;SDS011;22699;51.034;3.730;2023-04-25T13:09:18;7.80;;;1.23;;
36715;SDS011;22699;51.034;3.730;2023-04-25T13:11:46;8.85;;;1.17;;
36715;SDS011;22699;51.034;3.730;2023-04-25T13:14:16;6.47;;;1.40;;
36715;SDS011;22699;51.034;3.730;2023-04-25T13:16:42;5.25;;;1.65;;
36715;SDS011;22699;51.034;3.730;2023-04-25T13:19:10;4.20;;;1.77;;
36715;SDS011;22699;51.034;3.730;2023-04-25T13:21:37;5.18;;;1.40;;
36715;SDS011;22699;51.034;3.730;2023-04-25T13:24:03;6.18;;;1.80;;
36715;SDS011;22699;51.034;3.730;2023-04-25T13:26:35;5.45;;;1.50;;
36715;SDS011;22699;51.034;3.730;2023-04-25T13:29:01;4.75;;;1.00;;
36715;SDS011;22699;51.034;3.730;2023-04-25T13:31:28;9.73;;;1.77;;
36715;SDS011;22699;51.034;3.730;2023-04-25T13:33:55;6.13;;;1.40;;
36715;SDS011;22699;51.034;3.730;2023-04-25T13:36:22;8.05;;;1.55;;
36715;SDS011;22699;51.034;3.730;2023-04-25T13:38:51;11.55;;;4.97;;
36715;SDS011;22699;51.034;3.730;2023-04-25T13:41:17;4.13;;;1.10;;
36715;SDS011;22699;51.034;3.730;2023-04-25T13:43:44;8.88;;;1.77;;
36715;SDS011;22699;51.034;3.730;2023-04-25T13:46:13;7.13;;;1.38;;
36715;SDS011;22699;51.034;3.730;2023-04-25T13:48:41;6.32;;;2.00;;
36715;SDS011;22699;51.034;3.730;2023-04-25T13:51:13;6.47;;;1.65;;
36715;SDS011;22699;51.034;3.730;2023-04-25T13:53:38;10.05;;;2.30;;
36715;SDS011;22699;51.034;3.730;2023-04-25T13:56:04;4.70;;;1.50;;
36715;SDS011;22699;51.034;3.730;2023-04-25T13:58:30;5.38;;;1.13;;
36715;SDS011;22699;51.034;3.730;2023-04-25T14:00:57;4.22;;;1.50;;
36715;SDS011;22699;51.034;3.730;2023-04-25T14:03:23;9.90;;;1.65;;
36715;SDS011;22699;51.034;3.730;2023-04-25T14:05:48;7.15;;;1.67;;
36715;SDS011;22699;51.034;3.730;2023-04-25T14:08:14;9.27;;;1.42;;
36715;SDS011;22699;51.034;3.730;2023-04-25T14:10:40;8.73;;;2.10;;
36715;SDS011;22699;51.034;3.730;2023-04-25T14:13:05;11.65;;;3.83;;
36715;SDS011;22699;51.034;3.730;2023-04-25T14:15:31;7.28;;;1.73;;
36715;SDS011;22699;51.034;3.730;2023-04-25T14:17:57;6.78;;;1.10;;
36715;SDS011;22699;51.034;3.730;2023-04-25T14:20:24;5.32;;;1.25;;
36715;SDS011;22699;51.034;3.730;2023-04-25T14:22:51;7.55;;;1.38;;
36715;SDS011;22699;51.034;3.730;2023-04-25T14:25:20;6.00;;;1.40;;
36715;SDS011;22699;51.034;3.730;2023-04-25T14:27:46;3.20;;;1.20;;
36715;SDS011;22699;51.034;3.730;2023-04-25T14:30:15;6.05;;;1.27;;
36715;SDS011;22699;51.034;3.730;2023-04-25T14:32:42;4.72;;;1.40;;
36715;SDS011;22699;51.034;3.730;2023-04-25T14:35:11;7.60;;;1.73;;
36715;SDS011;22699;51.034;3.730;2023-04-25T14:37:37;9.95;;;1.55;;
36715;SDS011;22699;51.034;3.730;2023-04-25T14:40:04;4.03;;;1.25;;
36715;SDS011;22699;51.034;3.730;2023-04-25T14:42:31;3.97;;;1.20;;
36715;SDS011;22699;51.034;3.730;2023-04-25T14:45:00;2.47;;;0.75;;
36715;SDS011;22699;51.034;3.730;2023-04-25T14:47:26;3.90;;;1.08;;
36715;SDS011;22699;51.034;3.730;2023-04-25T14:49:52;5.03;;;1.20;;
36715;SDS011;22699;51.034;3.730;2023-04-25T14:52:20;4.03;;;0.80;;
36715;SDS011;22699;51.034;3.730;2023-04-25T14:57:22;5.13;;;1.10;;
36715;SDS011;22699;51.034;3.730;2023-04-25T14:59:49;4.82;;;1.38;;
36715;SDS011;22699;51.034;3.730;2023-04-25T15:02:20;3.22;;;1.08;;
36715;SDS011;22699;51.034;3.730;2023-04-25T15:04:51;5.53;;;1.27;;